Time;durP1;ratioP1;P1;durP2;ratioP2;P2;SDS_P1;SDS_P2;PMS_P1;PMS_P2;Temp;Humidity;BMP_temperature;BMP_pressure;BME280_temperature;BME280_humidity;BME280_pressure;Samples;Min_cycle;Max_cycle;Signal;HPM_P1;HPM_P2
2022/01/23 00:02:26;;;;;;;32.05;26.88;;;;;;;6.15;100.00;103464.50;5265512;28;20044;-75
2022/01/23 00:04:58;;;;;;;29.90;24.92;;;;;;;6.15;100.00;103461.88;5261765;28;20366;-75
2022/01/23 00:07:30;;;;;;;34.28;27.50;;;;;;;6.17;100.00;103465.28;5262884;28;20040;-75
2022/01/23 00:10:04;;;;;;;31.20;27.30;;;;;;;6.17;100.00;103461.84;5258551;28;20021;-75
2022/01/23 00:12:45;;;;;;;31.65;25.73;;;;;;;6.14;100.00;103457.59;5263710;28;20419;-75
2022/01/23 00:18:06;;;;;;;28.90;24.75;;;;;;;6.17;100.00;103451.44;5258804;28;20497;-75
2022/01/23 00:20:37;;;;;;;33.85;25.90;;;;;;;6.13;100.00;103439.38;5264173;28;20020;-75
2022/01/23 00:23:25;;;;;;;32.90;26.50;;;;;;;6.16;100.00;103454.94;5245850;28;20098;-75
2022/01/23 00:31:39;;;;;;;31.85;26.20;;;;;;;6.12;100.00;103448.94;5263622;28;20481;-75
2022/01/23 00:34:10;;;;;;;;;;;;;;;6.63;100.00;103445.94;5265391;28;20485;-75
2022/01/23 00:36:41;;;;;;;33.30;25.35;;;;;;;6.18;100.00;103447.97;5264579;28;19931;-75
2022/01/23 00:39:13;;;;;;;32.63;26.40;;;;;;;6.12;100.00;103433.31;5257451;28;20116;-75
2022/01/23 00:41:44;;;;;;;30.10;26.38;;;;;;;6.09;100.00;103429.03;5262094;28;20059;-75
2022/01/23 00:44:15;;;;;;;32.05;25.60;;;;;;;6.09;100.00;103436.00;5261341;28;20434;-75
2022/01/23 00:46:50;;;;;;;29.10;25.33;;;;;;;6.02;100.00;103426.63;5260941;28;20037;-75
2022/01/23 00:49:25;;;;;;;30.35;24.92;;;;;;;6.08;100.00;103429.09;5257897;28;20498;-75
2022/01/23 00:51:56;;;;;;;28.73;25.25;;;;;;;5.99;100.00;103406.75;5260976;28;20039;-75
2022/01/23 00:54:27;;;;;;;27.38;23.65;;;;;;;6.07;100.00;103415.22;5261367;28;20025;-75
2022/01/23 00:56:59;;;;;;;31.67;25.92;;;;;;;6.13;100.00;103429.81;5265108;28;20505;-75
2022/01/23 00:59:30;;;;;;;30.88;25.38;;;;;;;6.12;100.00;103433.31;5261135;28;20075;-75
2022/01/23 01:02:01;;;;;;;31.40;25.38;;;;;;;6.11;100.00;103430.78;5262131;28;20052;-75
2022/01/23 01:04:32;;;;;;;28.45;24.10;;;;;;;6.02;100.00;103414.50;5265744;28;20513;-75
2022/01/23 01:07:04;;;;;;;28.08;24.63;;;;;;;6.14;100.00;103428.94;5260348;28;20028;-75
2022/01/23 01:09:35;;;;;;;28.80;24.20;;;;;;;6.17;100.00;103431.47;5262256;28;20493;-75
2022/01/23 01:12:09;;;;;;;30.75;24.27;;;;;;;6.17;100.00;103425.41;5263236;28;20436;-75
2022/01/23 01:17:38;;;;;;;28.70;23.60;;;;;;;6.19;100.00;103429.69;5261203;28;20076;-75
2022/01/23 01:31:37;;;;;;;30.10;24.85;;;;;;;6.15;100.00;103427.19;5261568;28;20033;-75
2022/01/23 01:34:17;;;;;;;31.45;24.90;;;;;;;6.14;100.00;103435.88;5263810;28;20032;-75
2022/01/23 01:36:51;;;;;;;32.40;25.02;;;;;;;6.02;100.00;103411.00;5263913;28;20052;-75
2022/01/23 01:39:25;;;;;;;31.52;25.20;;;;;;;6.16;100.00;103423.69;5264999;28;20072;-75
2022/01/23 01:41:57;;;;;;;32.03;24.73;;;;;;;6.08;100.00;103422.13;5262446;28;20825;-75
2022/01/23 01:44:30;;;;;;;27.70;24.20;;;;;;;6.17;100.00;103441.00;5260356;28;20020;-75
2022/01/23 01:47:02;;;;;;;29.80;24.38;;;;;;;6.15;100.00;103448.03;5267952;28;20110;-75
2022/01/23 01:49:33;;;;;;;30.83;24.80;;;;;;;6.11;100.00;103438.59;5260852;28;20108;-75
2022/01/23 01:52:05;;;;;;;28.90;24.35;;;;;;;6.12;100.00;103442.88;5240885;28;20025;-75
2022/01/23 01:54:36;;;;;;;29.48;23.75;;;;;;;6.14;100.00;103446.28;5261220;28;20033;-75
2022/01/23 01:57:10;;;;;;;30.70;26.27;;;;;;;6.14;100.00;103448.91;5261800;28;20401;-75
2022/01/23 02:10:53;;;;;;;28.58;23.05;;;;;;;6.05;100.00;103444.78;5264537;28;20040;-75
2022/01/23 02:13:32;;;;;;;29.90;23.48;;;;;;;6.11;100.00;103456.81;5244798;28;20442;-75
2022/01/23 02:53:14;;;;;;;30.48;23.77;;;;;;;6.04;100.00;103409.25;5287646;28;20040;-72
2022/01/23 02:55:43;;;;;;;30.67;22.55;;;;;;;6.04;100.00;103404.88;5287110;28;20028;-71
2022/01/23 02:58:21;;;;;;;26.30;22.98;;;;;;;6.14;100.00;103402.03;5290162;28;20020;-72
2022/01/23 03:03:40;;;;;;;25.95;22.70;;;;;;;6.09;100.00;103405.63;5288851;28;20063;-72
2022/01/23 03:30:22;;;;;;;30.83;23.75;;;;;;;6.08;100.00;103416.09;5284584;28;20037;-71
2022/01/23 03:32:54;;;;;;;27.60;22.25;;;;;;;6.07;100.00;103417.84;5286497;28;20386;-71
2022/01/23 03:35:26;;;;;;;29.30;22.52;;;;;;;6.10;100.00;103424.72;5285056;28;20086;-71
2022/01/23 03:37:57;;;;;;;26.45;22.50;;;;;;;6.12;100.00;103422.91;5285692;28;20446;-72
2022/01/23 03:40:28;;;;;;;30.95;23.38;;;;;;;6.08;100.00;103422.13;5287720;28;20408;-71
2022/01/23 03:43:09;;;;;;;31.73;23.55;;;;;;;6.06;100.00;103421.34;5287762;28;20035;-71
2022/01/23 03:51:16;;;;;;;32.22;23.95;;;;;;;6.11;100.00;103421.22;5287751;28;20081;-71
2022/01/23 03:53:47;;;;;;;35.35;24.33;;;;;;;6.07;100.00;103422.19;5284218;28;20063;-71
2022/01/23 03:56:21;;;;;;;33.15;24.52;;;;;;;6.01;100.00;103415.38;5287360;28;20060;-71
2022/01/23 03:58:53;;;;;;;29.98;23.95;;;;;;;6.06;100.00;103426.53;5286566;28;20028;-71
2022/01/23 04:01:25;;;;;;;33.50;25.98;;;;;;;6.02;100.00;103419.69;5286636;28;20035;-71
2022/01/23 04:04:01;;;;;;;30.10;25.33;;;;;;;6.09;100.00;103433.41;5287547;28;20090;-71
2022/01/23 04:06:33;;;;;;;35.35;25.50;;;;;;;6.08;100.00;103427.34;5283663;28;20024;-71
2022/01/23 04:09:04;;;;;;;31.80;25.85;;;;;;;6.11;100.00;103428.16;5282490;28;20024;-71
2022/01/23 04:11:36;;;;;;;35.22;24.83;;;;;;;6.07;100.00;103436.06;5285933;28;20035;-71
2022/01/23 04:14:10;;;;;;;34.03;26.00;;;;;;;6.13;100.00;103440.22;5284793;28;20507;-71
2022/01/23 04:17:07;;;;;;;32.40;25.20;;;;;;;6.12;100.00;103437.69;5284717;28;20413;-71
2022/01/23 05:04:34;;;;;;;32.95;26.55;;;;;;;6.14;100.00;103451.50;5284725;28;20125;-72
2022/01/23 05:07:08;;;;;;;35.28;27.83;;;;;;;6.13;100.00;103450.66;5282459;28;20024;-73
2022/01/23 05:09:40;;;;;;;34.00;27.05;;;;;;;6.09;100.00;103444.66;5282395;28;20024;-73
2022/01/23 05:12:12;;;;;;;36.22;28.08;;;;;;;6.13;100.00;103442.00;5286820;28;20054;-73
2022/01/23 05:14:46;;;;;;;35.92;28.10;;;;;;;6.14;100.00;103441.09;5281686;28;20052;-72
2022/01/23 05:17:18;;;;;;;37.60;27.25;;;;;;;6.13;100.00;103432.44;5273963;28;20028;-71
2022/01/23 05:19:50;;;;;;;34.33;27.02;;;;;;;6.15;100.00;103443.66;5284512;28;20036;-72
2022/01/23 05:22:35;;;;;;;36.53;26.98;;;;;;;6.11;100.00;103428.16;5284738;28;20644;-72
2022/01/23 05:25:19;;;;;;;35.22;27.27;;;;;;;6.09;100.00;103438.59;5281549;28;20409;-71
2022/01/23 05:27:52;;;;;;;34.70;26.88;;;;;;;6.13;100.00;103434.19;5286372;28;20473;-71
2022/01/23 05:30:24;;;;;;;;;;;;;;;6.67;100.00;103446.69;5285139;28;20016;-72
2022/01/23 05:32:58;;;;;;;32.90;25.83;;;;;;;6.16;100.00;103442.78;5285481;28;19923;-72
2022/01/23 05:35:30;;;;;;;32.13;25.77;;;;;;;6.12;100.00;103442.88;5284080;28;20106;-71
2022/01/23 05:38:02;;;;;;;32.57;25.60;;;;;;;6.08;100.00;103442.97;5281024;28;20048;-72
2022/01/23 05:40:33;;;;;;;34.20;27.13;;;;;;;6.11;100.00;103451.59;5285449;28;20055;-72
2022/01/23 05:43:04;;;;;;;36.03;26.75;;;;;;;5.87;100.00;103453.84;5287049;28;20036;-72
2022/01/23 05:45:41;;;;;;;36.40;27.50;;;;;;;5.83;100.00;103449.59;5281835;28;20020;-71
2022/01/23 05:48:12;;;;;;;35.50;27.65;;;;;;;5.74;100.00;103437.66;5282402;28;20481;-71
2022/01/23 05:50:45;;;;;;;36.20;27.42;;;;;;;5.80;100.00;103457.50;5283837;28;20036;-71
2022/01/23 05:53:17;;;;;;;35.25;26.45;;;;;;;5.78;100.00;103448.84;5283378;28;20461;-71
2022/01/23 05:55:48;;;;;;;33.83;27.35;;;;;;;5.76;100.00;103445.44;5289391;28;20047;-71
2022/01/23 05:58:19;;;;;;;35.55;26.50;;;;;;;5.77;100.00;103434.16;5287444;28;20092;-71
2022/01/23 06:00:51;;;;;;;32.63;27.10;;;;;;;5.78;100.00;103443.66;5279638;28;20387;-71
2022/01/23 06:03:22;;;;;;;34.42;27.90;;;;;;;5.74;100.00;103427.25;5286061;28;20427;-71
2022/01/23 06:05:54;;;;;;;38.28;28.08;;;;;;;5.75;100.00;103433.31;5289090;28;20024;-71
2022/01/23 06:08:26;;;;;;;41.78;27.75;;;;;;;5.73;100.00;103435.09;5288686;28;20055;-71
2022/01/23 06:10:57;;;;;;;33.42;26.50;;;;;;;5.71;100.00;103431.66;5289490;28;20024;-71
2022/01/23 06:13:29;;;;;;;35.25;28.40;;;;;;;5.71;100.00;103429.06;5285776;28;20071;-71
2022/01/23 06:16:01;;;;;;;33.53;27.60;;;;;;;5.72;100.00;103444.66;5289098;28;20036;-71
2022/01/23 06:18:35;;;;;;;37.13;28.00;;;;;;;5.66;100.00;103439.59;5275331;28;20143;-71
2022/01/23 06:21:07;;;;;;;38.30;27.75;;;;;;;5.63;100.00;103439.66;5288043;28;20389;-71
2022/01/23 06:23:39;;;;;;;35.27;28.67;;;;;;;5.66;100.00;103434.38;5287685;28;20103;-71
2022/01/23 06:26:10;;;;;;;35.75;26.83;;;;;;;5.68;100.00;103445.59;5285609;28;20055;-72
2022/01/23 06:28:54;;;;;;;37.47;28.80;;;;;;;5.78;100.00;103452.31;5288942;28;20143;-73
2022/01/23 06:31:25;;;;;;;35.63;27.63;;;;;;;5.61;100.00;103436.25;5287362;28;20123;-72
2022/01/23 06:33:58;;;;;;;36.63;28.75;;;;;;;5.67;100.00;103446.50;5287601;28;20516;-73
2022/01/23 06:36:29;;;;;;;39.43;29.07;;;;;;;5.71;100.00;103444.69;5289157;28;20031;-71
2022/01/23 06:39:01;;;;;;;36.55;28.05;;;;;;;5.68;100.00;103447.34;5287522;28;20028;-71
2022/01/23 06:41:32;;;;;;;35.40;28.33;;;;;;;5.64;100.00;103443.09;5289179;28;20029;-71
2022/01/23 06:44:06;;;;;;;38.67;29.42;;;;;;;5.67;100.00;103448.25;5289904;28;20024;-71
2022/01/23 06:46:39;;;;;;;37.88;28.75;;;;;;;5.66;100.00;103459.53;5286673;28;20526;-71
2022/01/23 06:49:11;;;;;;;;;;;;;;;6.16;100.00;103460.13;5286660;28;20059;-71
2022/01/23 06:51:42;;;;;;;36.63;27.95;;;;;;;5.69;100.00;103459.47;5290699;28;19935;-71
2022/01/23 06:54:14;;;;;;;39.03;29.50;;;;;;;5.68;100.00;103463.78;5285582;28;20036;-71
2022/01/23 06:56:46;;;;;;;38.00;28.80;;;;;;;5.68;100.00;103470.75;5287137;28;20032;-71
2022/01/23 06:59:17;;;;;;;35.67;28.73;;;;;;;5.66;100.00;103460.38;5287559;28;20153;-71
2022/01/23 07:01:48;;;;;;;39.83;29.48;;;;;;;5.68;100.00;103462.94;5284624;28;20035;-71
2022/01/23 07:04:19;;;;;;;40.03;29.42;;;;;;;5.69;100.00;103468.13;5288150;28;20020;-72
2022/01/23 07:06:51;;;;;;;35.63;28.15;;;;;;;5.69;100.00;103475.09;5286901;28;20023;-71
2022/01/23 07:09:23;;;;;;;38.83;29.83;;;;;;;5.61;100.00;103475.25;5284125;28;20016;-73
2022/01/23 07:11:54;;;;;;;37.50;29.88;;;;;;;5.65;100.00;103474.28;5289128;28;20036;-72
2022/01/23 07:14:25;;;;;;;43.50;30.23;;;;;;;5.68;100.00;103481.16;5277059;28;20119;-72
2022/01/23 07:16:56;;;;;;;39.00;28.95;;;;;;;5.65;100.00;103479.50;5283887;28;20036;-72
2022/01/23 07:19:28;;;;;;;36.47;28.60;;;;;;;5.69;100.00;103493.28;5288047;28;20020;-72
2022/01/23 07:21:59;;;;;;;39.33;30.08;;;;;;;5.66;100.00;103488.16;5278559;28;20363;-71
2022/01/23 07:24:31;;;;;;;38.13;28.83;;;;;;;5.67;100.00;103488.09;5286376;28;20032;-71
2022/01/23 07:27:12;;;;;;;41.45;29.23;;;;;;;5.67;100.00;103493.31;5283813;28;20059;-71
2022/01/23 07:29:44;;;;;;;35.88;28.45;;;;;;;5.69;100.00;103503.69;5282144;28;20112;-72
2022/01/23 07:32:15;;;;;;;42.75;30.95;;;;;;;5.68;100.00;103504.56;5285022;28;20494;-71
2022/01/23 07:34:47;;;;;;;38.83;29.65;;;;;;;5.68;100.00;103509.75;5288856;28;20060;-73
2022/01/23 07:37:18;;;;;;;38.30;29.92;;;;;;;5.67;100.00;103503.72;5285355;28;20044;-73
2022/01/23 07:39:49;;;;;;;40.83;29.92;;;;;;;5.68;100.00;103510.63;5290220;28;20062;-72
2022/01/23 07:42:21;;;;;;;39.42;29.58;;;;;;;5.67;100.00;103508.06;5286742;28;20031;-72
2022/01/23 07:44:53;;;;;;;38.22;29.85;;;;;;;5.66;100.00;103507.22;5282239;28;20035;-72
2022/01/23 07:47:24;;;;;;;38.33;29.10;;;;;;;5.65;100.00;103515.91;5284614;28;20425;-72
2022/01/23 07:49:56;;;;;;;38.70;30.08;;;;;;;5.65;100.00;103522.84;5286145;28;20116;-71
2022/01/23 07:52:30;;;;;;;38.15;30.35;;;;;;;5.68;100.00;103521.00;5284984;28;20039;-73
2022/01/23 07:55:04;;;;;;;39.33;30.08;;;;;;;5.66;100.00;103512.41;5284698;28;20633;-72
2022/01/23 07:57:36;;;;;;;40.38;30.52;;;;;;;5.66;100.00;103521.97;5282134;28;20024;-71
2022/01/23 08:00:09;;;;;;;41.92;29.50;;;;;;;5.60;100.00;103515.13;5287378;28;20035;-72
2022/01/23 08:02:41;;;;;;;39.42;30.23;;;;;;;5.67;100.00;103518.47;5271257;28;20081;-72
2022/01/23 08:05:12;;;;;;;41.85;28.73;;;;;;;5.70;100.00;103521.84;5278870;28;20036;-72
2022/01/23 08:07:43;;;;;;;38.70;29.30;;;;;;;5.69;100.00;103517.56;5285699;28;20035;-71
2022/01/23 08:10:15;;;;;;;39.17;30.33;;;;;;;5.67;100.00;103519.31;5286024;28;20074;-72
2022/01/23 08:12:47;;;;;;;40.72;30.92;;;;;;;5.71;100.00;103527.91;5284968;28;20096;-72
2022/01/23 08:15:18;;;;;;;38.70;30.45;;;;;;;5.72;100.00;103512.28;5283129;28;21141;-71
2022/01/23 08:17:50;;;;;;;37.40;29.73;;;;;;;5.71;100.00;103520.09;5285810;28;20028;-72
2022/01/23 08:20:22;;;;;;;40.25;30.35;;;;;;;5.70;100.00;103519.25;5285474;28;20087;-72
2022/01/23 08:22:53;;;;;;;38.63;28.80;;;;;;;5.70;100.00;103528.81;5286812;28;20032;-72
2022/01/23 08:25:25;;;;;;;40.25;30.23;;;;;;;5.73;100.00;103528.75;5284473;28;20024;-71
2022/01/23 08:27:57;;;;;;;35.35;28.10;;;;;;;5.72;100.00;103530.50;5284509;28;20039;-72
2022/01/23 08:30:28;;;;;;;39.70;29.88;;;;;;;5.74;100.00;103523.50;5284771;28;20089;-72
2022/01/23 08:33:00;;;;;;;44.15;30.33;;;;;;;5.77;100.00;103533.84;5281402;28;20465;-72
2022/01/23 08:35:31;;;;;;;40.00;28.75;;;;;;;5.75;100.00;103530.41;5283996;28;20388;-72
2022/01/23 08:38:03;;;;;;;41.45;30.50;;;;;;;5.77;100.00;103530.38;5281173;28;20067;-72
2022/01/23 08:43:17;;;;;;;40.78;29.98;;;;;;;5.83;100.00;103545.84;5283990;28;20043;-72
2022/01/23 08:45:50;;;;;;;38.78;30.58;;;;;;;5.75;100.00;103545.16;5277336;28;20028;-72
2022/01/23 08:48:21;;;;;;;39.75;29.73;;;;;;;5.80;100.00;103551.16;5279859;28;20093;-72
2022/01/23 08:50:53;;;;;;;42.10;30.25;;;;;;;5.81;100.00;103552.84;5285333;28;20478;-72
2022/01/23 08:53:25;;;;;;;37.33;29.95;;;;;;;5.82;100.00;103551.94;5283013;28;20042;-72
2022/01/23 08:55:57;;;;;;;39.13;29.27;;;;;;;5.79;100.00;103546.81;5284980;28;20025;-72
2022/01/23 08:58:28;;;;;;;40.60;29.52;;;;;;;5.82;100.00;103554.56;5285788;28;20048;-71
2022/01/23 09:00:59;;;;;;;40.05;30.00;;;;;;;5.84;100.00;103551.03;5284290;28;20037;-71
2022/01/23 09:03:31;;;;;;;41.50;31.02;;;;;;;5.90;100.00;103559.59;5284873;28;20036;-72
2022/01/23 09:06:05;;;;;;;38.40;30.17;;;;;;;5.96;100.00;103556.91;5284773;28;20029;-72
2022/01/23 09:08:38;;;;;;;43.13;30.95;;;;;;;5.93;100.00;103554.34;5281875;28;20436;-72
2022/01/23 09:11:23;;;;;;;;;;;;;;;6.41;100.00;103552.38;5284324;28;20435;-73
2022/01/23 09:14:06;;;;;;;39.95;29.20;;;;;;;6.00;100.00;103554.19;5286391;28;19916;-72
2022/01/23 09:16:43;;;;;;;45.03;31.23;;;;;;;6.07;100.00;103552.31;5278574;28;20077;-72
2022/01/23 09:19:17;;;;;;;43.85;32.30;;;;;;;6.01;100.00;103553.28;5282806;28;20028;-73
2022/01/23 09:21:50;;;;;;;42.47;32.60;;;;;;;6.04;100.00;103545.41;5283880;28;20473;-72
2022/01/23 09:24:24;;;;;;;42.95;31.50;;;;;;;6.09;100.00;103548.75;5280943;28;20108;-72
2022/01/23 09:27:04;;;;;;;42.75;33.35;;;;;;;6.06;100.00;103547.97;5284126;28;20393;-72
2022/01/23 09:29:41;;;;;;;40.85;30.98;;;;;;;6.13;100.00;103553.91;5282189;28;20118;-72
2022/01/23 09:32:14;;;;;;;40.25;29.98;;;;;;;6.16;100.00;103544.28;5286284;28;20039;-72
2022/01/23 09:34:46;;;;;;;42.10;29.40;;;;;;;6.17;100.00;103552.94;5286103;28;20385;-72
2022/01/23 09:37:19;;;;;;;39.65;31.15;;;;;;;6.20;100.00;103548.53;5278374;28;20040;-72
2022/01/23 09:39:50;;;;;;;41.15;31.20;;;;;;;6.20;100.00;103552.88;5280738;28;20043;-72
2022/01/23 09:42:27;;;;;;;40.95;31.92;;;;;;;6.28;100.00;103556.16;5283301;28;20489;-74
2022/01/23 09:45:03;;;;;;;37.05;29.15;;;;;;;6.24;100.00;103546.72;5284118;28;20047;-72
2022/01/23 09:47:39;;;;;;;38.78;30.58;;;;;;;6.30;100.00;103559.59;5262403;28;20013;-72
2022/01/23 09:50:13;;;;;;;39.97;30.33;;;;;;;6.27;100.00;103562.25;5280546;28;20032;-72
2022/01/23 09:52:44;;;;;;;38.85;30.02;;;;;;;6.30;100.00;103572.63;5279388;28;20093;-72
2022/01/23 09:55:16;;;;;;;40.17;30.40;;;;;;;6.33;100.00;103564.75;5273131;28;20027;-72
2022/01/23 09:57:49;;;;;;;38.17;30.75;;;;;;;6.37;100.00;103568.13;5280970;28;20449;-72
2022/01/23 10:00:24;;;;;;;40.92;31.85;;;;;;;6.39;100.00;103568.94;5265015;28;20020;-72
2022/01/23 10:02:57;;;;;;;40.45;32.08;;;;;;;6.36;100.00;103569.00;5284023;28;20506;-72
2022/01/23 10:05:29;;;;;;;43.63;32.20;;;;;;;6.39;100.00;103572.38;5282632;28;20112;-72
2022/01/23 10:08:00;;;;;;;39.35;30.58;;;;;;;6.40;100.00;103575.84;5286414;28;20828;-72
2022/01/23 10:10:38;;;;;;;38.95;30.85;;;;;;;6.42;100.00;103572.31;5284271;28;20043;-73
2022/01/23 10:13:10;;;;;;;40.80;31.85;;;;;;;6.47;100.00;103567.84;5272894;28;20760;-72
2022/01/23 10:21:48;;;;;;;38.58;29.52;;;;;;;6.73;100.00;103569.81;5413551;22;20469;-73
2022/01/23 10:24:27;;;;;;;37.83;29.42;;;;;;;6.68;100.00;103568.25;5241338;28;20056;-73
2022/01/23 10:27:00;;;;;;;37.90;30.52;;;;;;;6.61;100.00;103557.09;5209066;28;20030;-73
2022/01/23 10:30:28;;;;;;;39.58;29.73;;;;;;;6.88;100.00;103563.38;5227031;28;20230;-72
2022/01/23 10:33:03;;;;;;;40.72;28.75;;;;;;;6.78;100.00;103565.38;5225561;28;20040;-72
2022/01/23 10:35:54;;;;;;;37.78;29.63;;;;;;;6.93;100.00;103560.63;5225311;28;20025;-72
2022/01/23 10:38:29;;;;;;;44.67;30.83;;;;;;;6.81;100.00;103564.41;5228453;28;20030;-72
2022/01/23 10:41:43;;;;;;;39.28;30.08;;;;;;;6.98;100.00;103564.00;5233240;28;20032;-72
2022/01/23 10:47:44;;;;;;;36.72;27.85;;;;;;;7.05;100.00;103562.94;5581540;22;20012;-74
2022/01/23 10:50:16;;;;;;;39.47;29.20;;;;;;;6.83;100.00;103541.78;5205821;28;20083;-73
2022/01/23 10:56:15;;;;;;;37.47;29.75;;;;;;;6.99;100.00;103557.88;5235566;28;20395;-72
2022/01/23 10:59:15;;;;;;;40.05;30.48;;;;;;;7.18;100.00;103553.88;5218996;28;20021;-72
2022/01/23 11:02:27;;;;;;;37.40;29.05;;;;;;;7.14;100.00;103546.19;5224359;28;20051;-72
2022/01/23 11:08:29;;;;;;;36.92;29.52;;;;;;;7.03;100.00;103554.28;5876788;23;20064;-72
2022/01/23 11:11:04;;;;;;;41.70;31.08;;;;;;;7.07;100.00;103559.38;5259178;28;20025;-73
2022/01/23 11:20:51;;;;;;;41.17;30.15;;;;;;;7.38;100.00;103547.25;5258903;28;20111;-72
2022/01/23 11:23:41;;;;;;;38.42;29.85;;;;;;;7.42;100.00;103546.28;5253567;28;20554;-72
2022/01/23 11:26:13;;;;;;;40.38;30.98;;;;;;;7.25;100.00;103550.22;5262224;28;20440;-73
2022/01/23 11:28:47;;;;;;;36.30;28.88;;;;;;;7.23;100.00;103535.50;5260003;28;20070;-72
2022/01/23 11:53:46;;;;;;;36.25;27.17;;;;;;;7.43;100.00;103525.38;5220973;28;20471;-72
2022/01/23 11:56:35;;;;;;;32.42;26.13;;;;;;;7.49;100.00;103530.41;5267290;28;20078;-72
2022/01/23 11:59:10;;;;;;;34.38;26.60;;;;;;;7.47;100.00;103529.59;5277157;28;20032;-72
2022/01/23 12:01:44;;;;;;;33.33;26.02;;;;;;;7.37;100.00;103527.31;5276032;28;20048;-72
2022/01/23 12:07:15;;;;;;;31.42;25.77;;;;;;;7.61;100.00;103517.91;5275794;28;20035;-73
2022/01/23 12:10:09;;;;;;;34.53;25.40;;;;;;;7.65;100.00;103516.91;5276444;28;20568;-72
2022/01/23 12:12:45;;;;;;;31.25;25.48;;;;;;;7.45;100.00;103515.75;5275663;28;20121;-72
2022/01/23 12:18:17;;;;;;;34.97;26.08;;;;;;;7.53;100.00;103507.69;5276832;28;20481;-72
2022/01/23 12:20:50;;;;;;;;;;;;;;;8.04;100.00;103505.28;5275853;28;20025;-73
2022/01/23 12:23:22;;;;;;;34.45;26.90;;;;;;;7.60;100.00;103488.34;5274793;28;19959;-72
2022/01/23 12:25:57;;;;;;;35.05;27.15;;;;;;;7.63;100.00;103492.63;5264271;28;20117;-72
2022/01/23 12:28:32;;;;;;;41.17;27.95;;;;;;;7.57;100.00;103493.66;5275995;28;20135;-72
2022/01/23 12:31:13;;;;;;;34.95;26.63;;;;;;;7.73;100.00;103497.53;5275033;28;20043;-73
2022/01/23 12:33:57;;;;;;;33.08;27.45;;;;;;;7.76;100.00;103497.41;5274647;28;20040;-72
2022/01/23 12:36:34;;;;;;;38.40;28.40;;;;;;;7.69;100.00;103497.66;5275195;28;20064;-72
2022/01/23 12:39:08;;;;;;;32.25;27.55;;;;;;;7.71;100.00;103496.72;5270953;28;20047;-72
2022/01/23 12:41:52;;;;;;;33.35;27.08;;;;;;;7.70;100.00;103492.41;5252580;28;20055;-72
2022/01/23 12:44:23;;;;;;;34.40;26.20;;;;;;;7.68;100.00;103488.97;5236647;28;20024;-72
2022/01/23 12:46:57;;;;;;;35.33;27.00;;;;;;;7.72;100.00;103489.75;5254041;28;20036;-73
2022/01/23 12:49:38;;;;;;;32.95;27.60;;;;;;;7.77;100.00;103490.47;5254262;28;20275;-72
2022/01/23 12:52:09;;;;;;;32.45;25.52;;;;;;;7.73;100.00;103488.88;5242360;28;20075;-73
2022/01/23 12:54:46;;;;;;;36.03;25.23;;;;;;;7.81;100.00;103484.25;5253215;28;20189;-72
2022/01/23 12:57:39;;;;;;;34.00;25.80;;;;;;;7.74;100.00;103483.59;5253809;28;20275;-73
2022/01/23 13:00:17;;;;;;;33.83;26.98;;;;;;;7.76;100.00;103480.91;5254086;28;20227;-73
2022/01/23 13:02:51;;;;;;;33.45;26.10;;;;;;;7.71;100.00;103477.59;5244849;28;20037;-73
2022/01/23 13:05:25;;;;;;;37.85;26.20;;;;;;;7.79;100.00;103473.00;5251540;28;20025;-72
2022/01/23 13:13:51;;;;;;;35.72;26.88;;;;;;;7.80;100.00;103464.25;5240517;28;20068;-72
2022/01/23 13:30:18;;;;;;;37.70;28.25;;;;;;;7.98;100.00;103448.03;5201782;28;20080;-73
2022/01/23 13:32:51;;;;;;;38.83;28.48;;;;;;;7.92;100.00;103460.44;5252879;28;20025;-72
2022/01/23 13:35:26;;;;;;;;;;;;;;;8.43;100.00;103465.72;5254014;28;20043;-72
2022/01/23 13:38:00;;;;;;;35.75;27.60;;;;;;;7.97;100.00;103456.75;5253195;28;19917;-72
2022/01/23 13:40:39;;;;;;;;;;;;;;;8.47;100.00;103459.47;5277886;28;21432;-72
2022/01/23 14:02:37;;;;;;;37.22;27.80;;;;;;;8.17;100.00;103444.81;5282917;28;20475;-73
2022/01/23 14:05:13;;;;;;;38.22;29.45;;;;;;;8.07;100.00;103444.28;5281154;28;20024;-72
2022/01/23 14:08:05;;;;;;;37.83;28.77;;;;;;;8.27;100.00;103436.63;5264954;28;20034;-72
2022/01/23 14:10:38;;;;;;;35.90;28.30;;;;;;;8.07;100.00;103438.19;5283256;28;20513;-72
2022/01/23 14:13:19;;;;;;;35.08;28.50;;;;;;;8.16;100.00;103430.06;5282900;28;20028;-73
2022/01/23 14:15:53;;;;;;;35.15;27.25;;;;;;;8.09;100.00;103436.38;5283857;28;20057;-73
2022/01/23 14:18:28;;;;;;;34.83;28.58;;;;;;;8.08;100.00;103432.06;5286489;28;20032;-74
2022/01/23 14:21:09;;;;;;;38.45;28.92;;;;;;;8.15;100.00;103437.03;5286751;28;20408;-74
2022/01/23 14:23:40;;;;;;;32.88;27.98;;;;;;;8.04;100.00;103440.00;5289688;28;20028;-72
2022/01/23 14:26:15;;;;;;;37.50;29.60;;;;;;;7.99;100.00;103439.31;5287181;28;20038;-73
2022/01/23 14:28:50;;;;;;;34.20;27.80;;;;;;;7.98;100.00;103441.94;5286052;28;20020;-73
2022/01/23 14:31:25;;;;;;;39.00;29.52;;;;;;;8.02;100.00;103446.16;5289001;28;20028;-72
2022/01/23 14:33:59;;;;;;;37.45;29.30;;;;;;;7.98;100.00;103447.16;5284961;28;20036;-72
2022/01/23 14:36:37;;;;;;;36.17;28.33;;;;;;;8.02;100.00;103454.84;5288128;28;20101;-72
2022/01/23 14:39:11;;;;;;;36.38;29.27;;;;;;;8.00;100.00;103453.22;5285116;28;20039;-74
2022/01/23 14:41:44;;;;;;;35.33;29.08;;;;;;;8.00;100.00;103455.81;5272852;28;20037;-73
2022/01/23 14:44:26;;;;;;;33.70;28.08;;;;;;;8.08;100.00;103452.97;5287253;28;20023;-73
2022/01/23 14:46:57;;;;;;;36.08;27.92;;;;;;;7.94;100.00;103451.63;5287455;28;20362;-72
2022/01/23 14:49:31;;;;;;;36.92;27.95;;;;;;;7.95;100.00;103452.47;5285337;28;20035;-73
2022/01/23 14:52:08;;;;;;;38.58;29.13;;;;;;;7.92;100.00;103456.06;5287523;28;20040;-73
2022/01/23 14:54:41;;;;;;;38.13;29.27;;;;;;;7.82;100.00;103441.59;5267745;28;20428;-72
2022/01/23 14:57:16;;;;;;;37.08;29.55;;;;;;;7.89;100.00;103452.69;5288649;28;20020;-74
2022/01/23 14:59:47;;;;;;;35.20;28.05;;;;;;;7.86;100.00;103450.19;5286471;28;20115;-72
2022/01/23 15:02:18;;;;;;;37.08;29.38;;;;;;;7.82;100.00;103440.75;5287101;28;20043;-73
2022/01/23 15:04:50;;;;;;;35.17;27.67;;;;;;;7.87;100.00;103447.50;5285494;28;20031;-72
2022/01/23 15:07:21;;;;;;;36.35;28.02;;;;;;;7.88;100.00;103451.84;5289761;28;20465;-73
2022/01/23 15:09:52;;;;;;;36.05;27.48;;;;;;;7.84;100.00;103450.25;5285853;28;20020;-72
2022/01/23 15:12:24;;;;;;;34.22;27.63;;;;;;;7.86;100.00;103447.56;5283661;28;20028;-72
2022/01/23 15:14:55;;;;;;;34.92;28.48;;;;;;;7.84;100.00;103451.97;5287927;28;20032;-72
2022/01/23 15:17:26;;;;;;;34.33;28.17;;;;;;;7.82;100.00;103454.63;5284347;28;20025;-72
2022/01/23 15:19:58;;;;;;;36.47;26.58;;;;;;;7.82;100.00;103451.19;5289989;28;20532;-72
2022/01/23 15:22:29;;;;;;;35.33;27.52;;;;;;;7.80;100.00;103454.69;5284807;28;20051;-72
2022/01/23 15:25:02;;;;;;;36.13;28.35;;;;;;;7.77;100.00;103459.16;5286649;28;20083;-73
2022/01/23 15:27:33;;;;;;;36.63;28.20;;;;;;;7.78;100.00;103458.25;5285166;28;20397;-72
2022/01/23 15:30:08;;;;;;;34.35;27.33;;;;;;;7.75;100.00;103455.72;5285406;28;20020;-73
2022/01/23 15:32:39;;;;;;;33.00;27.50;;;;;;;7.71;100.00;103462.78;5286750;28;20078;-73
2022/01/23 15:35:11;;;;;;;33.45;26.70;;;;;;;7.67;100.00;103447.28;5281020;28;20111;-73
2022/01/23 15:37:43;;;;;;;34.05;26.70;;;;;;;7.70;100.00;103457.63;5286486;28;20036;-73
2022/01/23 15:40:16;;;;;;;34.35;26.52;;;;;;;7.69;100.00;103458.50;5283341;28;20048;-73
2022/01/23 15:42:50;;;;;;;32.42;25.48;;;;;;;7.73;100.00;103454.94;5284077;28;20537;-72
2022/01/23 15:45:25;;;;;;;32.95;25.65;;;;;;;7.69;100.00;103454.19;5282880;28;20021;-72
2022/01/23 15:47:56;;;;;;;34.38;25.48;;;;;;;7.65;100.00;103442.13;5285999;28;20466;-73